Time;durP1;ratioP1;P1;durP2;ratioP2;P2;SDS_P1;SDS_P2;PMS_P1;PMS_P2;Temp;Humidity;BMP_temperature;BMP_pressure;BME280_temperature;BME280_humidity;BME280_pressure;Samples;Min_cycle;Max_cycle;Signal;HPM_P1;HPM_P2
2022/11/07 00:02:26;;;;;;;5.73;2.90;;;;;;;;;;4980126;28;20465;-69
2022/11/07 00:04:55;;;;;;;3.57;2.53;;;;;;;;;;4980114;28;20449;-69
2022/11/07 00:07:24;;;;;;;4.10;2.60;;;;;;;;;;4981113;28;20457;-69
2022/11/07 00:09:52;;;;;;;3.47;2.17;;;;;;;;;;4981040;28;20457;-70
2022/11/07 00:12:35;;;;;;;4.90;2.90;;;;;;;;;;4980708;28;20728;-69
2022/11/07 00:15:05;;;;;;;4.33;2.50;;;;;;;;;;4979862;28;20743;-70
2022/11/07 00:17:34;;;;;;;3.73;2.50;;;;;;;;;;4979787;28;20882;-70
2022/11/07 00:20:12;;;;;;;3.53;2.00;;;;;;;;;;4980269;28;20485;-70
2022/11/07 00:22:45;;;;;;;2.97;2.27;;;;;;;;;;4979762;28;20475;-70
2022/11/07 00:25:20;;;;;;;4.83;2.57;;;;;;;;;;4979594;28;20829;-70
2022/11/07 00:27:54;;;;;;;4.20;2.50;;;;;;;;;;4979369;28;20461;-69
2022/11/07 00:30:23;;;;;;;8.47;3.40;;;;;;;;;;4980056;28;20464;-69
2022/11/07 00:32:55;;;;;;;3.80;2.63;;;;;;;;;;4980000;28;20453;-69
2022/11/07 00:38:07;;;;;;;4.13;2.90;;;;;;;;;;4977388;28;20931;-70
2022/11/07 00:40:35;;;;;;;5.10;2.23;;;;;;;;;;4980299;28;20480;-70
2022/11/07 00:43:04;;;;;;;4.90;1.93;;;;;;;;;;4986999;28;20452;-70
2022/11/07 00:45:34;;;;;;;2.80;2.00;;;;;;;;;;4999321;28;20588;-71
2022/11/07 00:48:07;;;;;;;2.80;2.00;;;;;;;;;;4998732;28;20456;-70
2022/11/07 00:50:41;;;;;;;4.30;2.47;;;;;;;;;;4999277;28;20451;-70
2022/11/07 00:53:17;;;;;;;4.10;2.57;;;;;;;;;;4998664;28;20452;-70
2022/11/07 00:55:53;;;;;;;3.10;2.10;;;;;;;;;;4999112;28;20859;-69
2022/11/07 00:58:37;;;;;;;3.03;1.90;;;;;;;;;;4998680;28;20549;-70
2022/11/07 01:01:09;;;;;;;4.57;3.17;;;;;;;;;;4999518;28;20464;-71
2022/11/07 01:06:44;;;;;;;4.60;2.33;;;;;;;;;;4998930;28;21024;-70
2022/11/07 01:09:18;;;;;;;4.20;2.33;;;;;;;;;;4999507;28;20491;-70
2022/11/07 01:11:51;;;;;;;3.93;2.33;;;;;;;;;;4998790;28;20478;-69
2022/11/07 01:14:20;;;;;;;4.77;2.20;;;;;;;;;;4998931;28;20747;-69
2022/11/07 01:16:47;;;;;;;2.90;1.77;;;;;;;;;;4998096;28;20479;-70
2022/11/07 01:19:16;;;;;;;3.33;1.70;;;;;;;;;;4999342;28;21081;-71
2022/11/07 01:21:44;;;;;;;8.27;2.60;;;;;;;;;;4998408;28;20868;-70
2022/11/07 01:24:13;;;;;;;4.63;2.47;;;;;;;;;;4998961;28;20530;-70
2022/11/07 01:26:43;;;;;;;6.70;3.13;;;;;;;;;;4998684;28;20452;-70
2022/11/07 01:29:11;;;;;;;2.33;1.37;;;;;;;;;;4999142;28;20523;-70
2022/11/07 01:31:39;;;;;;;5.90;1.87;;;;;;;;;;4998501;28;20460;-70
2022/11/07 01:34:06;;;;;;;4.13;2.40;;;;;;;;;;4998434;28;20499;-70
2022/11/07 01:36:35;;;;;;;4.50;1.70;;;;;;;;;;4997876;28;20460;-70
2022/11/07 01:39:04;;;;;;;3.03;2.40;;;;;;;;;;4998101;28;20575;-70
2022/11/07 01:41:33;;;;;;;4.10;2.50;;;;;;;;;;4997837;28;20792;-70
2022/11/07 01:44:03;;;;;;;3.63;1.90;;;;;;;;;;4997691;28;20857;-70
2022/11/07 01:46:32;;;;;;;5.70;2.30;;;;;;;;;;4998037;28;20452;-70
2022/11/07 01:49:05;;;;;;;5.10;1.93;;;;;;;;;;4997445;28;20474;-70
2022/11/07 01:51:34;;;;;;;5.97;2.13;;;;;;;;;;4997241;28;20487;-70
2022/11/07 01:54:06;;;;;;;5.70;1.80;;;;;;;;;;4997592;28;20464;-70
2022/11/07 01:56:35;;;;;;;3.23;2.03;;;;;;;;;;4997158;28;20464;-69
2022/11/07 01:59:07;;;;;;;3.57;2.23;;;;;;;;;;4996415;28;20492;-70
2022/11/07 02:01:35;;;;;;;2.60;1.57;;;;;;;;;;4997508;28;20872;-70
2022/11/07 02:04:03;;;;;;;3.73;1.93;;;;;;;;;;4997129;28;20452;-69
2022/11/07 02:06:37;;;;;;;4.40;2.20;;;;;;;;;;4996912;28;20891;-69
2022/11/07 02:09:05;;;;;;;2.60;1.93;;;;;;;;;;4997252;28;20915;-70
2022/11/07 02:11:34;;;;;;;5.67;1.53;;;;;;;;;;4997556;28;20464;-69
2022/11/07 02:14:05;;;;;;;2.80;2.00;;;;;;;;;;4997566;28;20526;-69
2022/11/07 02:16:35;;;;;;;3.33;1.30;;;;;;;;;;4997429;28;20456;-70
2022/11/07 02:19:07;;;;;;;3.10;1.70;;;;;;;;;;4996725;28;20484;-70
2022/11/07 02:21:37;;;;;;;2.60;1.70;;;;;;;;;;4997271;28;20526;-70
2022/11/07 02:24:09;;;;;;;3.30;1.80;;;;;;;;;;4997535;28;20530;-70
2022/11/07 02:26:40;;;;;;;2.70;1.93;;;;;;;;;;4997446;28;20492;-70
2022/11/07 02:29:09;;;;;;;4.10;2.00;;;;;;;;;;4997385;28;20872;-70
2022/11/07 02:31:37;;;;;;;3.10;1.90;;;;;;;;;;4997356;28;20456;-70
2022/11/07 02:34:05;;;;;;;3.73;1.97;;;;;;;;;;4996874;28;20555;-70
2022/11/07 02:36:34;;;;;;;3.00;1.80;;;;;;;;;;4997436;28;20457;-70
2022/11/07 02:39:02;;;;;;;2.50;1.57;;;;;;;;;;4996252;28;20730;-70
2022/11/07 02:41:32;;;;;;;3.40;1.80;;;;;;;;;;4997299;28;20452;-70
2022/11/07 02:44:03;;;;;;;6.20;2.60;;;;;;;;;;4997247;28;20464;-70
2022/11/07 02:46:32;;;;;;;2.77;1.43;;;;;;;;;;4996671;28;20488;-69
2022/11/07 02:49:01;;;;;;;3.47;1.77;;;;;;;;;;4997021;28;20460;-70
2022/11/07 02:51:36;;;;;;;3.70;1.90;;;;;;;;;;4997425;28;20518;-70
2022/11/07 02:54:04;;;;;;;3.27;1.70;;;;;;;;;;4996778;28;20522;-70
2022/11/07 02:56:33;;;;;;;3.57;2.50;;;;;;;;;;4996853;28;20518;-70
2022/11/07 02:59:02;;;;;;;2.57;1.70;;;;;;;;;;4996788;28;20593;-70
2022/11/07 03:01:30;;;;;;;3.27;1.77;;;;;;;;;;4996557;28;20456;-70
2022/11/07 03:04:00;;;;;;;3.10;1.40;;;;;;;;;;5000865;28;20470;-69
2022/11/07 03:06:28;;;;;;;3.13;1.50;;;;;;;;;;5000553;28;20554;-70
2022/11/07 03:08:56;;;;;;;5.10;2.00;;;;;;;;;;5000555;28;20467;-70
2022/11/07 03:11:24;;;;;;;6.20;2.60;;;;;;;;;;5000623;28;20476;-70
2022/11/07 03:13:53;;;;;;;3.83;1.40;;;;;;;;;;5000176;28;20460;-70
2022/11/07 03:16:23;;;;;;;3.00;1.47;;;;;;;;;;5000686;28;20724;-70
2022/11/07 03:18:51;;;;;;;2.97;1.83;;;;;;;;;;5000140;28;20534;-70
2022/11/07 03:21:22;;;;;;;3.47;1.70;;;;;;;;;;4999978;28;20463;-70
2022/11/07 03:23:58;;;;;;;6.13;1.93;;;;;;;;;;5000512;28;20554;-69
2022/11/07 03:26:26;;;;;;;3.37;1.50;;;;;;;;;;5000238;28;20550;-70
2022/11/07 03:28:54;;;;;;;3.17;2.10;;;;;;;;;;4999516;28;20456;-70
2022/11/07 03:31:23;;;;;;;4.47;1.87;;;;;;;;;;5000070;28;20492;-70
2022/11/07 03:33:57;;;;;;;2.50;1.33;;;;;;;;;;5000438;28;20460;-70
2022/11/07 03:36:27;;;;;;;4.20;2.00;;;;;;;;;;5000592;28;20527;-70
2022/11/07 03:38:55;;;;;;;4.10;1.90;;;;;;;;;;5000724;28;20503;-70
2022/11/07 03:41:22;;;;;;;5.57;1.57;;;;;;;;;;5001077;28;20452;-70
2022/11/07 03:43:52;;;;;;;2.80;1.40;;;;;;;;;;5001072;28;20464;-70
2022/11/07 03:46:20;;;;;;;5.90;2.07;;;;;;;;;;5000798;28;20491;-70
2022/11/07 03:48:49;;;;;;;2.60;1.30;;;;;;;;;;5000706;28;20899;-70
2022/11/07 03:51:17;;;;;;;3.83;2.10;;;;;;;;;;5000732;28;20456;-70
2022/11/07 03:53:45;;;;;;;5.17;1.90;;;;;;;;;;4999601;28;20452;-70
2022/11/07 03:56:13;;;;;;;4.07;2.60;;;;;;;;;;5000975;28;20456;-70
2022/11/07 03:58:44;;;;;;;3.47;1.50;;;;;;;;;;5000247;28;20595;-70
2022/11/07 04:01:12;;;;;;;2.60;1.70;;;;;;;;;;5000709;28;20554;-70
2022/11/07 04:03:40;;;;;;;4.73;1.40;;;;;;;;;;4981990;28;20889;-70
2022/11/07 04:06:10;;;;;;;4.03;1.73;;;;;;;;;;4981271;28;20532;-70
2022/11/07 04:08:38;;;;;;;3.60;1.90;;;;;;;;;;4982038;28;20465;-69
2022/11/07 04:11:05;;;;;;;7.00;1.97;;;;;;;;;;4981579;28;20555;-70
2022/11/07 04:19:04;;;;;;;5.23;3.33;;;;;;;;;;4979742;28;20483;-70
2022/11/07 04:21:34;;;;;;;3.47;1.80;;;;;;;;;;4980108;28;20453;-70
2022/11/07 04:24:02;;;;;;;3.23;1.83;;;;;;;;;;4980407;28;20461;-70
2022/11/07 04:29:15;;;;;;;6.93;2.30;;;;;;;;;;4978805;28;20856;-70
2022/11/07 04:31:43;;;;;;;4.50;1.90;;;;;;;;;;4978878;28;20453;-70
2022/11/07 04:34:10;;;;;;;4.33;1.87;;;;;;;;;;4978843;28;20500;-70
2022/11/07 04:36:39;;;;;;;5.63;2.57;;;;;;;;;;4978935;28;20568;-70
2022/11/07 04:39:07;;;;;;;2.57;1.53;;;;;;;;;;4978976;28;20499;-70
2022/11/07 04:41:38;;;;;;;5.50;2.00;;;;;;;;;;4978997;28;20500;-70
2022/11/07 04:44:06;;;;;;;6.47;2.07;;;;;;;;;;4978772;28;20457;-70
2022/11/07 04:46:34;;;;;;;2.47;1.53;;;;;;;;;;4978783;28;20548;-70
2022/11/07 04:49:02;;;;;;;2.60;1.50;;;;;;;;;;4978243;28;20593;-70
2022/11/07 04:51:29;;;;;;;4.30;2.10;;;;;;;;;;4985198;28;20468;-70
2022/11/07 04:54:03;;;;;;;4.00;1.53;;;;;;;;;;4980273;28;20850;-70
2022/11/07 04:56:31;;;;;;;2.17;1.30;;;;;;;;;;4988166;28;20606;-70
2022/11/07 04:58:59;;;;;;;3.57;1.60;;;;;;;;;;4978954;28;20485;-69
2022/11/07 05:01:26;;;;;;;5.00;1.50;;;;;;;;;;4978530;28;20536;-69
2022/11/07 05:03:54;;;;;;;4.00;1.50;;;;;;;;;;4978341;28;20477;-70
2022/11/07 05:06:22;;;;;;;4.60;2.10;;;;;;;;;;4977897;28;20473;-69
2022/11/07 05:08:50;;;;;;;5.30;2.13;;;;;;;;;;4982009;28;20481;-70
2022/11/07 05:11:19;;;;;;;7.40;1.93;;;;;;;;;;4992458;28;20461;-70
2022/11/07 05:13:48;;;;;;;4.93;2.20;;;;;;;;;;4984174;28;20487;-70
2022/11/07 05:16:18;;;;;;;2.80;1.80;;;;;;;;;;4981774;28;20543;-70
2022/11/07 05:18:48;;;;;;;5.97;2.50;;;;;;;;;;4977471;28;20579;-70
2022/11/07 05:21:21;;;;;;;2.30;1.50;;;;;;;;;;4978186;28;20461;-69
2022/11/07 05:23:48;;;;;;;2.67;1.87;;;;;;;;;;4977967;28;20962;-70
2022/11/07 05:26:16;;;;;;;4.93;2.40;;;;;;;;;;4977990;28;20459;-70
2022/11/07 05:28:46;;;;;;;2.73;1.50;;;;;;;;;;4978122;28;20575;-70
2022/11/07 05:31:15;;;;;;;3.83;2.20;;;;;;;;;;4977942;28;20453;-70
2022/11/07 05:33:48;;;;;;;11.87;2.20;;;;;;;;;;4977615;28;20559;-71
2022/11/07 05:36:26;;;;;;;4.20;1.70;;;;;;;;;;4977755;28;20531;-71
2022/11/07 05:38:57;;;;;;;2.63;1.83;;;;;;;;;;4976921;28;20533;-71
2022/11/07 05:41:29;;;;;;;5.20;1.90;;;;;;;;;;4979935;28;20883;-71
2022/11/07 05:44:03;;;;;;;7.63;2.37;;;;;;;;;;4995949;28;20547;-71
2022/11/07 05:46:37;;;;;;;6.70;1.63;;;;;;;;;;4976925;28;20943;-69
2022/11/07 05:49:08;;;;;;;2.93;1.50;;;;;;;;;;4976390;28;20523;-71
2022/11/07 05:51:36;;;;;;;4.20;1.93;;;;;;;;;;4991141;28;20495;-70
2022/11/07 05:54:05;;;;;;;4.80;2.30;;;;;;;;;;4987827;28;20460;-70
2022/11/07 05:56:33;;;;;;;4.50;2.23;;;;;;;;;;4987094;28;20468;-70
2022/11/07 05:59:05;;;;;;;3.50;2.03;;;;;;;;;;4996196;28;20495;-69
2022/11/07 06:01:34;;;;;;;6.40;2.43;;;;;;;;;;4983521;28;20825;-70
2022/11/07 06:04:02;;;;;;;2.87;1.53;;;;;;;;;;4983378;28;20794;-70
2022/11/07 06:06:46;;;;;;;3.37;1.90;;;;;;;;;;4996108;28;20526;-71
2022/11/07 06:09:14;;;;;;;4.40;2.10;;;;;;;;;;4981140;28;20477;-71
2022/11/07 06:11:47;;;;;;;5.23;2.07;;;;;;;;;;4976070;28;20457;-71
2022/11/07 06:14:16;;;;;;;3.77;1.87;;;;;;;;;;4975907;28;20520;-70
2022/11/07 06:16:47;;;;;;;2.90;2.17;;;;;;;;;;4976196;28;20478;-70
2022/11/07 06:19:15;;;;;;;3.10;2.03;;;;;;;;;;4975751;28;20773;-70
2022/11/07 06:21:43;;;;;;;7.20;2.10;;;;;;;;;;4991228;28;20531;-69
2022/11/07 06:24:11;;;;;;;5.67;2.20;;;;;;;;;;4993179;28;20455;-70
2022/11/07 06:26:39;;;;;;;4.63;2.30;;;;;;;;;;4994949;28;20456;-69
2022/11/07 06:29:27;;;;;;;5.50;2.57;;;;;;;;;;4995037;28;20454;-70
2022/11/07 06:31:58;;;;;;;4.30;1.53;;;;;;;;;;4992595;28;20472;-70
2022/11/07 06:34:27;;;;;;;4.57;2.67;;;;;;;;;;4993531;28;20753;-70
2022/11/07 06:37:00;;;;;;;4.97;2.07;;;;;;;;;;4994261;28;20464;-69
2022/11/07 06:39:30;;;;;;;3.83;2.13;;;;;;;;;;4994606;28;20578;-72
2022/11/07 06:42:02;;;;;;;6.67;2.57;;;;;;;;;;4976941;28;20472;-71
2022/11/07 06:44:30;;;;;;;3.70;2.23;;;;;;;;;;4977273;28;20965;-72
2022/11/07 06:47:00;;;;;;;3.30;1.53;;;;;;;;;;4976983;28;20464;-71
2022/11/07 06:49:28;;;;;;;5.07;2.43;;;;;;;;;;4984188;28;20867;-72
2022/11/07 06:51:56;;;;;;;3.70;1.93;;;;;;;;;;4995230;28;20579;-72
2022/11/07 06:54:24;;;;;;;5.57;3.60;;;;;;;;;;4997392;28;20550;-72
2022/11/07 06:56:51;;;;;;;7.70;2.20;;;;;;;;;;4996173;28;21018;-72
2022/11/07 06:59:22;;;;;;;7.67;2.50;;;;;;;;;;4984446;28;20481;-72
2022/11/07 07:01:50;;;;;;;5.03;2.10;;;;;;;;;;4987206;28;20935;-71
2022/11/07 07:04:20;;;;;;;4.17;1.97;;;;;;;;;;4997391;28;20460;-71
2022/11/07 07:06:50;;;;;;;5.43;2.00;;;;;;;;;;4997474;28;21027;-71
2022/11/07 07:09:18;;;;;;;5.03;2.07;;;;;;;;;;4997523;28;20448;-71
2022/11/07 07:11:47;;;;;;;4.67;1.90;;;;;;;;;;4997943;28;20535;-71
2022/11/07 07:14:15;;;;;;;4.53;2.50;;;;;;;;;;4995756;28;20451;-71
2022/11/07 07:16:43;;;;;;;4.77;2.20;;;;;;;;;;4986471;28;20739;-71
2022/11/07 07:19:15;;;;;;;3.30;1.83;;;;;;;;;;4978046;28;20516;-71
2022/11/07 07:21:55;;;;;;;4.33;1.80;;;;;;;;;;4984819;28;20472;-71
2022/11/07 07:24:42;;;;;;;4.03;2.33;;;;;;;;;;4989043;28;20472;-70
2022/11/07 07:27:12;;;;;;;3.37;1.73;;;;;;;;;;4987935;28;20462;-70
2022/11/07 07:29:40;;;;;;;3.20;1.67;;;;;;;;;;4997434;28;20451;-71
2022/11/07 07:32:08;;;;;;;4.63;1.90;;;;;;;;;;4995791;28;20480;-69
2022/11/07 07:34:38;;;;;;;5.07;2.03;;;;;;;;;;4983358;28;20504;-70
2022/11/07 07:37:16;;;;;;;4.53;2.47;;;;;;;;;;4978067;28;20453;-69
2022/11/07 07:39:45;;;;;;;7.27;1.53;;;;;;;;;;4984619;28;20496;-69
2022/11/07 07:42:19;;;;;;;3.23;1.20;;;;;;;;;;4977944;28;20538;-69
2022/11/07 07:44:47;;;;;;;2.67;1.77;;;;;;;;;;4977627;28;20467;-70
2022/11/07 07:47:19;;;;;;;3.93;2.00;;;;;;;;;;4976841;28;20547;-68
2022/11/07 07:49:52;;;;;;;5.83;1.87;;;;;;;;;;4993181;28;20456;-68
2022/11/07 07:52:22;;;;;;;9.83;2.37;;;;;;;;;;4987651;28;20460;-68
2022/11/07 07:54:54;;;;;;;4.63;2.03;;;;;;;;;;4981032;28;20473;-68
2022/11/07 07:57:24;;;;;;;3.07;2.00;;;;;;;;;;4980017;28;20677;-68
2022/11/07 08:00:01;;;;;;;3.70;1.60;;;;;;;;;;4982686;28;20500;-69
2022/11/07 08:02:29;;;;;;;5.30;1.87;;;;;;;;;;4987374;28;20464;-70
2022/11/07 08:05:02;;;;;;;3.43;2.00;;;;;;;;;;4977487;28;20576;-69
2022/11/07 08:07:32;;;;;;;2.03;1.37;;;;;;;;;;4980009;28;20547;-69
2022/11/07 08:10:18;;;;;;;7.23;2.10;;;;;;;;;;4977252;28;20504;-68
2022/11/07 08:12:55;;;;;;;3.63;1.80;;;;;;;;;;4977167;28;20460;-69
2022/11/07 08:15:25;;;;;;;5.23;1.90;;;;;;;;;;4975363;28;20563;-70
2022/11/07 08:17:56;;;;;;;4.27;1.97;;;;;;;;;;4975543;28;21087;-73
2022/11/07 08:20:49;;;;;;;6.50;2.03;;;;;;;;;;4977750;28;20550;-71
2022/11/07 08:23:23;;;;;;;4.10;2.60;;;;;;;;;;4983920;28;20461;-69
2022/11/07 08:25:52;;;;;;;7.20;2.07;;;;;;;;;;4976471;28;20535;-68
2022/11/07 08:28:34;;;;;;;2.40;1.80;;;;;;;;;;4986674;28;20476;-69
2022/11/07 08:31:10;;;;;;;3.83;1.87;;;;;;;;;;4979942;28;20457;-69
2022/11/07 08:33:56;;;;;;;4.17;1.60;;;;;;;;;;4979985;28;20509;-68
2022/11/07 08:36:27;;;;;;;7.07;2.60;;;;;;;;;;4995102;28;20640;-68
2022/11/07 08:38:56;;;;;;;3.57;1.73;;;;;;;;;;4980523;28;20454;-68
2022/11/07 08:41:28;;;;;;;7.47;2.33;;;;;;;;;;4979303;28;20485;-68
2022/11/07 08:43:59;;;;;;;4.57;1.67;;;;;;;;;;4981955;28;20457;-69
2022/11/07 08:46:27;;;;;;;5.07;2.50;;;;;;;;;;4994529;28;20472;-68
2022/11/07 08:48:55;;;;;;;5.47;2.03;;;;;;;;;;4977111;28;20460;-68
2022/11/07 08:51:24;;;;;;;5.10;1.63;;;;;;;;;;4981123;28;20477;-68
2022/11/07 08:53:52;;;;;;;3.40;1.77;;;;;;;;;;4991913;28;20559;-68
2022/11/07 08:56:21;;;;;;;5.40;2.10;;;;;;;;;;4982544;28;20468;-68
2022/11/07 08:58:52;;;;;;;9.80;2.00;;;;;;;;;;4975521;28;20462;-69
2022/11/07 09:01:22;;;;;;;3.60;1.57;;;;;;;;;;4985694;28;20488;-70
2022/11/07 09:03:51;;;;;;;3.53;1.70;;;;;;;;;;4988335;28;20733;-72
2022/11/07 09:06:19;;;;;;;4.90;1.30;;;;;;;;;;4977186;28;20473;-71
2022/11/07 09:08:47;;;;;;;3.80;2.37;;;;;;;;;;4985808;28;20623;-71
2022/11/07 09:11:17;;;;;;;5.70;2.33;;;;;;;;;;4983409;28;20476;-69
2022/11/07 09:13:54;;;;;;;5.27;2.50;;;;;;;;;;4976189;28;20457;-69
2022/11/07 09:16:32;;;;;;;6.10;1.63;;;;;;;;;;4993093;28;20468;-70
2022/11/07 09:19:05;;;;;;;2.47;1.20;;;;;;;;;;4985834;28;20905;-70
2022/11/07 09:21:36;;;;;;;5.70;2.00;;;;;;;;;;4981479;28;20491;-70
2022/11/07 09:24:10;;;;;;;3.70;1.57;;;;;;;;;;4976376;28;20725;-70
2022/11/07 09:26:42;;;;;;;4.47;1.60;;;;;;;;;;4978304;28;21999;-71
2022/11/07 09:29:14;;;;;;;4.23;1.63;;;;;;;;;;4987219;28;20775;-71
2022/11/07 09:34:23;;;;;;;2.83;1.40;;;;;;;;;;4968097;28;20488;-69
2022/11/07 09:36:50;;;;;;;7.00;2.73;;;;;;;;;;4984950;28;20464;-70
2022/11/07 09:39:21;;;;;;;9.60;2.10;;;;;;;;;;4977471;28;21033;-69
2022/11/07 09:42:03;;;;;;;6.53;2.00;;;;;;;;;;4979882;28;20492;-68
2022/11/07 09:44:48;;;;;;;2.23;1.27;;;;;;;;;;4975320;28;20470;-68
2022/11/07 09:47:23;;;;;;;5.20;1.30;;;;;;;;;;4975057;28;20463;-71
2022/11/07 09:49:55;;;;;;;6.63;2.50;;;;;;;;;;4986039;28;20468;-71
2022/11/07 09:52:28;;;;;;;5.40;2.10;;;;;;;;;;4989721;28;20499;-68
2022/11/07 09:55:01;;;;;;;8.47;4.23;;;;;;;;;;4980662;28;21168;-69
2022/11/07 09:57:35;;;;;;;6.70;2.53;;;;;;;;;;4980649;28;20461;-69
2022/11/07 10:00:10;;;;;;;5.40;1.57;;;;;;;;;;4986170;28;20489;-68
2022/11/07 10:03:03;;;;;;;5.90;1.90;;;;;;;;;;4977914;28;20468;-70
2022/11/07 10:06:08;;;;;;;6.33;2.50;;;;;;;;;;4979208;28;20449;-70
2022/11/07 10:12:21;;;;;;;2.33;1.50;;;;;;;;;;4974543;28;20873;-69
2022/11/07 10:15:20;;;;;;;3.67;2.13;;;;;;;;;;4991601;28;20463;-68
2022/11/07 10:18:03;;;;;;;4.93;2.80;;;;;;;;;;4994113;28;20470;-68
2022/11/07 10:20:44;;;;;;;4.73;1.57;;;;;;;;;;4994714;28;20508;-69
2022/11/07 10:23:29;;;;;;;6.63;2.10;;;;;;;;;;4986823;28;20508;-70
2022/11/07 10:26:14;;;;;;;5.13;1.63;;;;;;;;;;4979208;28;20936;-69
2022/11/07 10:28:46;;;;;;;8.43;2.80;;;;;;;;;;4976297;28;20507;-68
2022/11/07 10:31:28;;;;;;;3.37;1.60;;;;;;;;;;4979228;28;20464;-68
2022/11/07 10:34:23;;;;;;;7.87;2.17;;;;;;;;;;4984959;28;20504;-68
2022/11/07 10:36:55;;;;;;;6.00;2.57;;;;;;;;;;4978824;28;20975;-69
2022/11/07 10:39:25;;;;;;;5.60;2.00;;;;;;;;;;4992147;28;20493;-70
2022/11/07 10:48:28;;;;;;;6.10;1.93;;;;;;;;;;4981724;28;20468;-70
2022/11/07 10:51:07;;;;;;;3.33;1.73;;;;;;;;;;4974950;28;20531;-70
2022/11/07 10:53:46;;;;;;;1.80;1.17;;;;;;;;;;4974382;28;20460;-67
2022/11/07 10:56:15;;;;;;;5.50;1.67;;;;;;;;;;4982303;28;20468;-71
2022/11/07 10:58:46;;;;;;;4.67;2.40;;;;;;;;;;4994861;28;20471;-69
2022/11/07 11:01:14;;;;;;;5.10;1.80;;;;;;;;;;4992715;28;20526;-67
2022/11/07 11:03:54;;;;;;;3.90;2.90;;;;;;;;;;4995080;28;20819;-70
2022/11/07 11:06:28;;;;;;;10.50;1.70;;;;;;;;;;4976980;28;20461;-69
2022/11/07 11:09:02;;;;;;;4.43;1.70;;;;;;;;;;4974233;28;20457;-69
2022/11/07 11:11:36;;;;;;;2.20;1.10;;;;;;;;;;4974773;28;20464;-70
2022/11/07 11:14:06;;;;;;;3.90;2.20;;;;;;;;;;4974798;28;20460;-69
2022/11/07 11:16:37;;;;;;;3.80;1.70;;;;;;;;;;4973496;28;20461;-70
2022/11/07 11:19:05;;;;;;;3.50;1.70;;;;;;;;;;4979345;28;20452;-70
2022/11/07 11:21:47;;;;;;;2.87;1.63;;;;;;;;;;4984353;28;20492;-69
2022/11/07 11:24:40;;;;;;;4.87;2.73;;;;;;;;;;4975883;28;20455;-69
2022/11/07 11:27:13;;;;;;;4.80;2.27;;;;;;;;;;4991025;28;20467;-69
2022/11/07 11:29:44;;;;;;;8.07;1.73;;;;;;;;;;4995935;28;20911;-69
2022/11/07 11:32:20;;;;;;;3.83;2.03;;;;;;;;;;4995479;28;20551;-70
2022/11/07 11:34:52;;;;;;;6.77;2.43;;;;;;;;;;4992444;28;20962;-70
2022/11/07 11:37:28;;;;;;;3.57;2.37;;;;;;;;;;4989574;28;20483;-71
2022/11/07 11:40:10;;;;;;;6.93;1.97;;;;;;;;;;4984837;28;20455;-70
2022/11/07 11:42:50;;;;;;;4.57;2.13;;;;;;;;;;4989643;28;20550;-68
2022/11/07 11:45:20;;;;;;;6.33;2.20;;;;;;;;;;4978597;28;20448;-68
2022/11/07 11:47:56;;;;;;;2.37;2.10;;;;;;;;;;4977592;28;20469;-70
2022/11/07 11:50:43;;;;;;;7.87;2.53;;;;;;;;;;4992450;28;20445;-71
2022/11/07 11:53:33;;;;;;;4.83;2.57;;;;;;;;;;4979524;28;20552;-70
2022/11/07 11:56:10;;;;;;;7.80;2.90;;;;;;;;;;4986984;28;20473;-69
2022/11/07 11:58:43;;;;;;;3.27;2.20;;;;;;;;;;4981976;28;20504;-70
2022/11/07 12:01:16;;;;;;;5.43;2.03;;;;;;;;;;4977875;28;20492;-70
2022/11/07 12:04:01;;;;;;;4.47;2.13;;;;;;;;;;4987663;28;20468;-69
2022/11/07 12:06:47;;;;;;;3.27;1.90;;;;;;;;;;4993621;28;20487;-70
2022/11/07 12:09:32;;;;;;;6.03;2.50;;;;;;;;;;4982547;28;20746;-70
2022/11/07 12:12:06;;;;;;;6.50;3.50;;;;;;;;;;4992028;28;20543;-70
2022/11/07 12:17:37;;;;;;;5.07;2.43;;;;;;;;;;4976695;28;20453;-69
2022/11/07 12:20:10;;;;;;;5.60;2.40;;;;;;;;;;4977227;28;20476;-69
2022/11/07 12:22:47;;;;;;;8.93;4.20;;;;;;;;;;4980050;28;20465;-68
2022/11/07 12:25:19;;;;;;;5.10;2.60;;;;;;;;;;4980245;28;20460;-68
2022/11/07 12:27:54;;;;;;;4.20;2.07;;;;;;;;;;4995293;28;20607;-69
2022/11/07 12:30:23;;;;;;;10.37;2.23;;;;;;;;;;4995278;28;20452;-68
2022/11/07 12:33:00;;;;;;;6.70;2.20;;;;;;;;;;4982722;28;20705;-68
2022/11/07 12:35:37;;;;;;;6.37;1.57;;;;;;;;;;4989798;28;20542;-69
2022/11/07 12:38:19;;;;;;;10.67;2.40;;;;;;;;;;4980875;28;21169;-69
2022/11/07 12:40:54;;;;;;;7.57;2.33;;;;;;;;;;4975497;28;20578;-69
2022/11/07 12:43:31;;;;;;;8.70;3.10;;;;;;;;;;4975604;28;20476;-69
2022/11/07 12:46:15;;;;;;;7.00;2.50;;;;;;;;;;4978102;28;20538;-70
2022/11/07 12:49:12;;;;;;;5.67;1.97;;;;;;;;;;4980862;28;20464;-70
2022/11/07 12:51:47;;;;;;;12.43;2.90;;;;;;;;;;4982872;28;20460;-69
2022/11/07 12:54:31;;;;;;;6.83;2.87;;;;;;;;;;4976690;28;20476;-69
2022/11/07 12:56:59;;;;;;;4.20;2.50;;;;;;;;;;4988290;28;20456;-68
2022/11/07 12:59:30;;;;;;;9.60;2.30;;;;;;;;;;4987046;28;20457;-69
2022/11/07 13:02:03;;;;;;;5.60;2.60;;;;;;;;;;4979858;28;20496;-70
2022/11/07 13:04:36;;;;;;;6.00;2.67;;;;;;;;;;4979531;28;20450;-68
2022/11/07 13:07:07;;;;;;;10.30;2.70;;;;;;;;;;4975070;28;20475;-68
2022/11/07 13:09:38;;;;;;;6.17;2.50;;;;;;;;;;4985714;28;20460;-67
2022/11/07 13:12:08;;;;;;;4.77;1.97;;;;;;;;;;4992547;28;20480;-68
2022/11/07 13:14:40;;;;;;;4.13;1.60;;;;;;;;;;4995195;28;20471;-68
2022/11/07 13:17:26;;;;;;;5.67;2.33;;;;;;;;;;4994185;28;20753;-69
2022/11/07 13:20:01;;;;;;;5.13;2.80;;;;;;;;;;4979334;28;20598;-69
2022/11/07 13:22:35;;;;;;;5.73;2.60;;;;;;;;;;4982389;28;20492;-68
2022/11/07 13:25:25;;;;;;;7.80;2.30;;;;;;;;;;4994270;28;20527;-69
2022/11/07 13:28:11;;;;;;;5.60;2.33;;;;;;;;;;4978410;28;20460;-68
2022/11/07 13:30:43;;;;;;;6.37;2.27;;;;;;;;;;4977548;28;20876;-68
2022/11/07 13:33:38;;;;;;;6.93;2.90;;;;;;;;;;4980092;28;20465;-69
2022/11/07 13:39:18;;;;;;;5.00;2.00;;;;;;;;;;4975725;28;20457;-70
2022/11/07 13:41:47;;;;;;;5.83;2.13;;;;;;;;;;4979310;28;20888;-69
2022/11/07 13:44:20;;;;;;;7.60;2.37;;;;;;;;;;4978307;28;20464;-67
2022/11/07 13:46:59;;;;;;;8.77;2.27;;;;;;;;;;4977164;28;20465;-69
2022/11/07 13:49:33;;;;;;;10.17;2.03;;;;;;;;;;4978417;28;20472;-70
2022/11/07 13:52:03;;;;;;;14.53;5.20;;;;;;;;;;4992755;28;20550;-68
2022/11/07 13:54:35;;;;;;;4.63;2.90;;;;;;;;;;4994744;28;20460;-69
2022/11/07 13:57:11;;;;;;;11.00;2.60;;;;;;;;;;4986106;28;20955;-69
2022/11/07 13:59:42;;;;;;;5.90;2.33;;;;;;;;;;4975593;28;20796;-70
2022/11/07 14:02:18;;;;;;;4.07;2.20;;;;;;;;;;4975312;28;20547;-68
2022/11/07 14:04:50;;;;;;;11.27;3.63;;;;;;;;;;4976424;28;20457;-69
2022/11/07 14:07:18;;;;;;;8.90;2.63;;;;;;;;;;4977412;28;20457;-69
2022/11/07 14:09:46;;;;;;;6.93;2.37;;;;;;;;;;4980576;28;20476;-69
2022/11/07 14:12:21;;;;;;;4.83;2.23;;;;;;;;;;4993368;28;20491;-69
2022/11/07 14:14:51;;;;;;;10.40;2.57;;;;;;;;;;4980445;28;20464;-69
2022/11/07 14:17:32;;;;;;;3.80;2.07;;;;;;;;;;4981975;28;20973;-70
2022/11/07 14:20:15;;;;;;;5.70;1.67;;;;;;;;;;4982316;28;20518;-70
2022/11/07 14:22:48;;;;;;;5.37;2.10;;;;;;;;;;4973868;28;20584;-69
2022/11/07 14:25:22;;;;;;;6.57;2.27;;;;;;;;;;4977748;28;20461;-68
2022/11/07 14:27:51;;;;;;;4.10;1.70;;;;;;;;;;4984381;28;20465;-69
2022/11/07 14:30:20;;;;;;;11.80;2.63;;;;;;;;;;4975117;28;20449;-68
2022/11/07 14:32:52;;;;;;;5.63;2.67;;;;;;;;;;4978362;28;20804;-71
2022/11/07 14:35:24;;;;;;;4.83;2.00;;;;;;;;;;4984662;28;20475;-68
2022/11/07 14:37:52;;;;;;;8.73;3.77;;;;;;;;;;4984018;28;20778;-69
2022/11/07 14:40:21;;;;;;;7.70;2.00;;;;;;;;;;4976610;28;20465;-68
2022/11/07 14:42:49;;;;;;;7.53;3.07;;;;;;;;;;4978484;28;20495;-69
2022/11/07 14:45:17;;;;;;;3.97;2.20;;;;;;;;;;4974154;28;20866;-69
2022/11/07 14:47:50;;;;;;;6.63;2.97;;;;;;;;;;4986392;28;20472;-70
2022/11/07 14:50:27;;;;;;;6.50;3.07;;;;;;;;;;4974911;28;20455;-70
2022/11/07 14:53:00;;;;;;;4.80;2.87;;;;;;;;;;4978726;28;20500;-69
2022/11/07 14:55:31;;;;;;;9.90;3.47;;;;;;;;;;4974745;28;20460;-68
2022/11/07 14:58:03;;;;;;;9.87;4.80;;;;;;;;;;4974902;28;20745;-70
2022/11/07 15:00:35;;;;;;;7.60;3.03;;;;;;;;;;4980787;28;20772;-70
2022/11/07 15:03:03;;;;;;;5.90;2.53;;;;;;;;;;4983599;28;21232;-70
2022/11/07 15:05:49;;;;;;;11.00;3.10;;;;;;;;;;4984602;28;20555;-70
2022/11/07 15:09:08;;;;;;;5.73;3.60;;;;;;;;;;4980980;28;20912;-70
2022/11/07 15:11:53;;;;;;;5.70;3.80;;;;;;;;;;4979822;28;20518;-70
2022/11/07 15:14:36;;;;;;;5.07;3.20;;;;;;;;;;4982133;28;20525;-70
2022/11/07 15:17:10;;;;;;;9.40;2.07;;;;;;;;;;4980847;28;20487;-70
2022/11/07 15:28:56;;;;;;;5.67;2.80;;;;;;;;;;4987437;28;20459;-69
2022/11/07 15:31:28;;;;;;;8.03;4.30;;;;;;;;;;4989813;28;20457;-69
2022/11/07 15:34:15;;;;;;;8.47;2.90;;;;;;;;;;4981337;28;20491;-69
2022/11/07 15:36:46;;;;;;;12.17;3.00;;;;;;;;;;4988321;28;20776;-69
2022/11/07 15:39:18;;;;;;;4.90;3.23;;;;;;;;;;4986780;28;20496;-69
2022/11/07 15:51:33;;;;;;;4.73;2.43;;;;;;;;;;4945512;28;20476;-69
2022/11/07 15:54:06;;;;;;;5.63;2.77;;;;;;;;;;4995121;28;20931;-69
2022/11/07 15:56:43;;;;;;;5.03;2.70;;;;;;;;;;4991223;28;20803;-69
2022/11/07 16:02:07;;;;;;;6.00;3.40;;;;;;;;;;4977827;28;20563;-69
2022/11/07 16:04:42;;;;;;;8.90;3.30;;;;;;;;;;4976594;28;20500;-71
2022/11/07 16:07:19;;;;;;;11.83;3.57;;;;;;;;;;4977298;28;20460;-69
2022/11/07 16:10:11;;;;;;;5.60;2.40;;;;;;;;;;4980830;28;21094;-69
2022/11/07 16:12:49;;;;;;;8.00;2.80;;;;;;;;;;4986446;28;20881;-69